Terminal Aerodrome Forecast
Issued by NWS Tampa Bay Area, FL

Home | Current Version | Previous Version | Text Only | Print | Product List | Glossary On
Versions: 1 2 3 4 5 6 7 8 9 10 11 12 13 14 15 16 17 18 19 20 21 22 23 24 25 26 27 28 29
000
FTUS42 KTBW 052339
TAFTPA
TAF
KTPA 052339Z 0600/0624 VRB06G15KT 6SM -RA VCTS SCT015 BKN025CB
     FM060030 VRB06KT P6SM VCSH SCT025 BKN040 BKN250
     FM060300 VRB02KT P6SM FEW040 BKN250
     FM061400 VRB06KT P6SM SCT035
     FM061600 27007KT P6SM VCTS SCT025 BKN050CB=

USA.gov is the U.S. government's official web portal to all federal, state and local government web resources and services.